Hlavní strana
METAR-TAF:

METAR-TAF

Letiště :

Maracaibo, Venezuela

zeměpisná šířka: 10-34N, zeměpisná délka: 071-44W, výška: 66 m

METAR: chybějící

Čas: 06:39 (10:39 UTC)

Předpověď počasí

Zpráva byla vytvořena před 6 hodinami a 39 minutami, v 04:00 UTC
Předpověď platná od 24 v 06 UTC do 25 v 06 UTC
Severní vítr kt
Viditelnost 10 km a více
Polojasno ve výšce 1300 ft
Změna
od 24 v 06 UTC do 24 v 10 UTC
vítr z různých směrů 3 kt
Skoro jasno ve výšce 1300 ft

TAF: SVMC 240400Z 2406/2506 00000KT 9999 SCT013 TX34/18Z TN25/08Z BECMG 2406/2410 VRB03KT FEW013

Stav a předpovědi počasí z více než 4 000 letišť (zprávy METAR a TAF).

Červené a žluté tečky na mapě představují dostupné meteorologické stanice.

Když kurzor umístíte na tečku, zobrazí se název stanice.

Pak kliknutím zobrazíte stav a předpověď počasí.

Chcete-li změnit mapu, kliknutím na zelené tlačítko se znaménkem +mapu přiblížíte, kliknutím na zelené tlačítko se znaménkem – mapu oddálíte a kliknutím na zelené šipky přejdete na sousední mapy.


METAR-TAF: